Painted Post, New York
Current Conditions -  °F | °C
As of 9:53 AM on Thursday 18 Dec 2014 (Local Time) from KELM Reporting Station
Overcast Overcast  
Wind Chill: -4°   Ceiling: 1900
Heat Index:   Visibility: 10mi
Dew Point: -3°   Wind: 9mph
Humidity: 79%   Direction: 290°WNW
Pressure: 30.05"   Gusts: 18mph
Location:  42.16°N, 77.09°W
Report Text: KELM 181453Z 29008G16KT 250V310 10SM OVC019 00/M03 A3005 RMK AO2 SLP185 T00001033 50009
Loading
Personal Weather Stations






























Interactive Weather Map New forecast layout! Learn more

10-Day Weather Forecast

Advertisements
Track Severe Weather on mobile